createdAt,value
2022-08-31T04:47:36.977Z,14.45
2022-08-31T04:52:33.394Z,14.45
2022-08-31T04:57:31.357Z,14.47
2022-08-31T05:02:27.753Z,14.49
2022-08-31T05:07:25.611Z,14.51
2022-08-31T05:12:22.870Z,14.51
2022-08-31T05:17:19.304Z,14.52
2022-08-31T05:22:15.745Z,14.54
2022-08-31T05:27:12.187Z,14.56
2022-08-31T05:32:08.733Z,14.59
2022-08-31T05:37:05.355Z,14.65
2022-08-31T05:42:02.179Z,14.71
2022-08-31T05:47:04.000Z,14.80
2022-08-31T05:52:00.947Z,14.93
2022-08-31T05:57:00.984Z,15.12
2022-08-31T06:01:57.993Z,15.27
2022-08-31T06:06:54.720Z,15.41
2022-08-31T06:11:51.584Z,15.52
2022-08-31T06:16:47.886Z,15.59
2022-08-31T06:21:50.099Z,15.70
2022-08-31T06:26:57.887Z,15.87
2022-08-31T06:31:55.693Z,16.37
2022-08-31T06:36:52.096Z,16.60
2022-08-31T06:41:49.152Z,16.72
2022-08-31T06:46:47.236Z,17.20
2022-08-31T06:51:44.170Z,17.71
2022-08-31T06:56:40.512Z,17.75
2022-08-31T07:01:36.954Z,17.62
2022-08-31T07:06:42.725Z,17.54
2022-08-31T07:11:44.382Z,17.53
2022-08-31T07:16:41.656Z,17.56
2022-08-31T07:21:41.740Z,17.58
2022-08-31T07:26:39.650Z,17.64
2022-08-31T07:31:46.389Z,17.65
2022-08-31T07:37:02.155Z,17.74
2022-08-31T07:42:10.452Z,17.81
2022-08-31T07:47:11.958Z,17.89
2022-08-31T07:52:11.309Z,17.96
2022-08-31T07:57:07.641Z,18.03
2022-08-31T08:02:04.726Z,18.07
2022-08-31T08:07:05.774Z,18.16
2022-08-31T08:12:08.457Z,18.23
2022-08-31T08:17:05.469Z,18.33
2022-08-31T08:22:02.851Z,18.36
2022-08-31T08:26:59.247Z,18.42
2022-08-31T08:31:56.685Z,18.48
2022-08-31T08:36:53.083Z,18.58
2022-08-31T08:41:49.409Z,18.66
2022-08-31T08:46:51.136Z,18.72
2022-08-31T08:51:49.600Z,18.85
2022-08-31T08:56:48.859Z,18.95
2022-08-31T09:01:47.075Z,19.04
2022-08-31T09:06:54.655Z,19.09
2022-08-31T09:11:54.934Z,19.17
2022-08-31T09:17:09.701Z,19.26
2022-08-31T09:22:07.836Z,19.28
2022-08-31T09:27:17.843Z,19.32
2022-08-31T09:32:17.856Z,19.33
2022-08-31T09:37:16.291Z,19.35
2022-08-31T09:42:20.418Z,19.41
2022-08-31T09:47:48.204Z,19.40
2022-08-31T09:53:03.384Z,19.46
2022-08-31T09:58:03.060Z,19.55
2022-08-31T10:03:20.569Z,19.65
2022-08-31T10:08:35.957Z,19.75
2022-08-31T10:13:34.197Z,19.91
2022-08-31T10:18:45.024Z,20.04
2022-08-31T10:23:54.402Z,20.11
2022-08-31T10:28:54.539Z,20.16
2022-08-31T10:34:13.051Z,20.25
2022-08-31T10:39:15.801Z,20.35
2022-08-31T10:44:17.886Z,20.39
2022-08-31T10:49:14.188Z,20.46
2022-08-31T10:54:13.541Z,20.51
2022-08-31T10:59:28.633Z,20.57
2022-08-31T11:04:37.329Z,20.65
2022-08-31T11:10:03.124Z,20.62
2022-08-31T11:15:08.749Z,20.63
2022-08-31T11:20:23.805Z,20.69
2022-08-31T11:25:24.927Z,20.83
2022-08-31T11:30:24.320Z,21.02
2022-08-31T11:35:39.208Z,21.14
2022-08-31T11:40:43.630Z,21.23
2022-08-31T11:45:40.896Z,21.31
2022-08-31T11:50:56.057Z,21.36
2022-08-31T11:55:52.544Z,21.43
2022-08-31T12:01:02.913Z,21.46
2022-08-31T12:05:59.236Z,21.51
2022-08-31T12:11:04.335Z,21.50
2022-08-31T12:16:04.030Z,21.51
2022-08-31T12:21:21.941Z,21.57
2022-08-31T12:26:41.757Z,21.69
2022-08-31T12:31:40.235Z,21.85
2022-08-31T12:36:36.990Z,21.90
2022-08-31T12:41:33.326Z,21.80
2022-08-31T12:46:43.250Z,21.71
2022-08-31T12:51:46.570Z,21.59
2022-08-31T12:56:51.839Z,21.52
2022-08-31T13:01:48.792Z,21.44
2022-08-31T13:06:48.117Z,21.38
2022-08-31T13:11:50.077Z,21.40
2022-08-31T13:16:48.810Z,21.47
2022-08-31T13:21:48.930Z,21.51
2022-08-31T13:26:45.418Z,21.56
2022-08-31T13:31:49.551Z,21.64
2022-08-31T13:36:53.787Z,21.64
2022-08-31T13:42:05.834Z,21.69
2022-08-31T13:47:04.253Z,21.65
2022-08-31T13:52:01.298Z,21.67
2022-08-31T13:57:08.848Z,21.72
2022-08-31T14:02:19.444Z,21.81
2022-08-31T14:07:43.703Z,21.94
2022-08-31T14:12:47.181Z,22.09
2022-08-31T14:18:24.112Z,22.21
2022-08-31T14:23:24.497Z,22.32
2022-08-31T14:28:39.697Z,22.37
2022-08-31T14:33:36.420Z,22.35
2022-08-31T14:38:32.744Z,22.37
2022-08-31T14:43:29.037Z,22.35
2022-08-31T14:48:26.780Z,22.34
2022-08-31T14:53:23.360Z,22.29
2022-08-31T14:58:19.921Z,22.24
2022-08-31T15:03:16.412Z,22.23
2022-08-31T15:08:12.768Z,22.30
2022-08-31T15:13:09.498Z,22.35
2022-08-31T15:18:06.428Z,22.36
2022-08-31T15:23:03.452Z,22.38
2022-08-31T15:28:01.513Z,22.42
2022-08-31T15:32:57.920Z,22.45
2022-08-31T15:37:58.632Z,22.45
2022-08-31T15:42:55.111Z,22.45
2022-08-31T15:48:09.884Z,22.47
2022-08-31T15:53:09.488Z,22.50
2022-08-31T15:58:07.733Z,22.50
2022-08-31T16:03:05.071Z,22.48
2022-08-31T16:08:02.116Z,22.48
2022-08-31T16:12:58.415Z,22.43
2022-08-31T16:17:57.374Z,22.33
2022-08-31T16:22:53.699Z,22.26
2022-08-31T16:27:50.499Z,22.14
2022-08-31T16:32:50.442Z,22.05
2022-08-31T16:37:50.331Z,21.98
2022-08-31T16:42:46.692Z,21.92
2022-08-31T16:47:43.084Z,21.83
2022-08-31T16:52:39.445Z,21.79
2022-08-31T16:57:35.793Z,21.72
2022-08-31T17:02:33.076Z,21.67
2022-08-31T17:07:29.444Z,21.60
2022-08-31T17:12:27.136Z,21.54
2022-08-31T17:17:24.814Z,21.50
2022-08-31T17:22:30.008Z,21.47
2022-08-31T17:27:29.171Z,21.44
2022-08-31T17:32:26.094Z,21.41
2022-08-31T17:37:27.649Z,21.36
2022-08-31T17:42:26.705Z,21.30
2022-08-31T17:47:23.815Z,21.25
2022-08-31T17:52:21.435Z,21.17
2022-08-31T17:57:19.047Z,21.05
2022-08-31T18:02:17.422Z,20.93
2022-08-31T18:07:14.778Z,20.80
2022-08-31T18:12:11.238Z,20.68
2022-08-31T18:17:09.980Z,20.58
2022-08-31T18:22:06.804Z,20.46
2022-08-31T18:27:04.916Z,20.38
2022-08-31T18:32:04.402Z,20.28
2022-08-31T18:37:02.177Z,20.21
2022-08-31T18:42:16.984Z,20.11
2022-08-31T18:47:13.901Z,20.06
2022-08-31T18:52:15.996Z,19.99
2022-08-31T18:57:12.460Z,19.93
2022-08-31T19:02:08.998Z,19.88
2022-08-31T19:07:05.948Z,19.79
2022-08-31T19:12:02.751Z,19.70
2022-08-31T19:17:04.006Z,19.64
2022-08-31T19:22:01.214Z,19.54
2022-08-31T19:26:58.983Z,19.43
2022-08-31T19:31:55.932Z,19.36
2022-08-31T19:36:54.611Z,19.34
2022-08-31T19:41:53.859Z,19.27
2022-08-31T19:46:53.326Z,19.23
2022-08-31T19:51:51.824Z,19.17
2022-08-31T19:56:48.264Z,19.09
2022-08-31T20:01:45.374Z,19.02
2022-08-31T20:06:41.826Z,18.97
2022-08-31T20:11:38.180Z,18.94
2022-08-31T20:16:35.456Z,18.90
2022-08-31T20:21:34.494Z,18.82
2022-08-31T20:26:33.298Z,18.74
2022-08-31T20:31:35.023Z,18.66
2022-08-31T20:36:34.591Z,18.58
2022-08-31T20:55:29.939Z,18.44
2022-08-31T20:59:59.562Z,18.39
2022-08-31T21:06:51.950Z,18.33
2022-08-31T22:10:44.372Z,17.85
2022-08-31T22:16:46.171Z,17.82
2022-08-31T22:50:50.714Z,17.34
2022-08-31T23:13:49.863Z,17.06
2022-08-31T23:19:53.521Z,17.04
2022-08-31T23:25:28.150Z,16.99
2022-08-31T23:43:46.830Z,16.86
